sensor_id;sensor_type;location;lat;lon;timestamp;P1;durP1;ratioP1;P2;durP2;ratioP2
69188;SDS011;56302;52.322;5.926;2023-12-22T00:01:38;12.75;;;1.50;;
69188;SDS011;56302;52.322;5.926;2023-12-22T00:04:04;11.17;;;1.77;;
69188;SDS011;56302;52.322;5.926;2023-12-22T00:06:31;11.93;;;1.65;;
69188;SDS011;56302;52.322;5.926;2023-12-22T00:08:57;13.45;;;1.95;;
69188;SDS011;56302;52.322;5.926;2023-12-22T00:11:23;11.57;;;1.63;;
69188;SDS011;56302;52.322;5.926;2023-12-22T00:13:48;13.73;;;1.70;;
69188;SDS011;56302;52.322;5.926;2023-12-22T00:16:14;9.20;;;1.70;;
69188;SDS011;56302;52.322;5.926;2023-12-22T00:18:39;13.48;;;1.77;;
69188;SDS011;56302;52.322;5.926;2023-12-22T00:21:09;12.20;;;1.70;;
69188;SDS011;56302;52.322;5.926;2023-12-22T00:23:35;5.80;;;1.08;;
69188;SDS011;56302;52.322;5.926;2023-12-22T00:26:01;12.20;;;1.67;;
69188;SDS011;56302;52.322;5.926;2023-12-22T00:28:27;13.85;;;1.30;;
69188;SDS011;56302;52.322;5.926;2023-12-22T00:30:52;10.00;;;1.73;;
69188;SDS011;56302;52.322;5.926;2023-12-22T00:33:18;7.97;;;1.30;;
69188;SDS011;56302;52.322;5.926;2023-12-22T00:35:43;11.13;;;1.23;;
69188;SDS011;56302;52.322;5.926;2023-12-22T00:38:09;7.93;;;1.00;;
69188;SDS011;56302;52.322;5.926;2023-12-22T00:40:35;15.18;;;2.13;;
69188;SDS011;56302;52.322;5.926;2023-12-22T00:43:01;12.73;;;1.10;;
69188;SDS011;56302;52.322;5.926;2023-12-22T00:45:26;8.07;;;1.50;;
69188;SDS011;56302;52.322;5.926;2023-12-22T00:47:52;10.23;;;1.20;;
69188;SDS011;56302;52.322;5.926;2023-12-22T00:50:17;11.93;;;1.50;;
69188;SDS011;56302;52.322;5.926;2023-12-22T00:52:43;13.27;;;1.45;;
69188;SDS011;56302;52.322;5.926;2023-12-22T00:55:09;12.97;;;1.77;;
69188;SDS011;56302;52.322;5.926;2023-12-22T00:57:34;8.50;;;1.17;;
69188;SDS011;56302;52.322;5.926;2023-12-22T01:00:00;6.93;;;1.17;;
69188;SDS011;56302;52.322;5.926;2023-12-22T01:02:26;7.88;;;1.25;;
69188;SDS011;56302;52.322;5.926;2023-12-22T01:04:51;4.87;;;1.00;;
69188;SDS011;56302;52.322;5.926;2023-12-22T01:07:17;5.20;;;1.30;;
69188;SDS011;56302;52.322;5.926;2023-12-22T01:09:43;9.85;;;1.35;;
69188;SDS011;56302;52.322;5.926;2023-12-22T01:12:09;10.77;;;1.73;;
69188;SDS011;56302;52.322;5.926;2023-12-22T01:14:35;8.40;;;1.30;;
69188;SDS011;56302;52.322;5.926;2023-12-22T01:17:01;9.63;;;1.35;;
69188;SDS011;56302;52.322;5.926;2023-12-22T01:19:26;8.63;;;0.97;;
69188;SDS011;56302;52.322;5.926;2023-12-22T01:21:52;10.27;;;1.40;;
69188;SDS011;56302;52.322;5.926;2023-12-22T01:24:18;12.70;;;1.40;;
69188;SDS011;56302;52.322;5.926;2023-12-22T01:26:43;7.20;;;1.17;;
69188;SDS011;56302;52.322;5.926;2023-12-22T01:29:09;6.95;;;1.10;;
69188;SDS011;56302;52.322;5.926;2023-12-22T01:31:35;6.90;;;0.80;;
69188;SDS011;56302;52.322;5.926;2023-12-22T01:34:00;9.67;;;1.40;;
69188;SDS011;56302;52.322;5.926;2023-12-22T01:36:26;9.80;;;1.17;;
69188;SDS011;56302;52.322;5.926;2023-12-22T01:38:51;8.27;;;1.17;;
69188;SDS011;56302;52.322;5.926;2023-12-22T01:41:17;9.55;;;1.30;;
69188;SDS011;56302;52.322;5.926;2023-12-22T01:43:43;6.55;;;1.40;;
69188;SDS011;56302;52.322;5.926;2023-12-22T01:46:08;7.27;;;1.07;;
69188;SDS011;56302;52.322;5.926;2023-12-22T01:48:35;7.55;;;1.50;;
69188;SDS011;56302;52.322;5.926;2023-12-22T01:51:01;8.02;;;1.05;;
69188;SDS011;56302;52.322;5.926;2023-12-22T01:53:28;10.82;;;1.13;;
69188;SDS011;56302;52.322;5.926;2023-12-22T01:55:55;8.57;;;1.33;;
69188;SDS011;56302;52.322;5.926;2023-12-22T01:58:24;4.25;;;0.68;;
69188;SDS011;56302;52.322;5.926;2023-12-22T02:00:52;6.55;;;0.90;;
69188;SDS011;56302;52.322;5.926;2023-12-22T02:03:18;6.60;;;1.10;;
69188;SDS011;56302;52.322;5.926;2023-12-22T02:05:44;4.57;;;1.00;;
69188;SDS011;56302;52.322;5.926;2023-12-22T02:08:11;8.50;;;0.87;;
69188;SDS011;56302;52.322;5.926;2023-12-22T02:10:37;6.03;;;0.65;;
69188;SDS011;56302;52.322;5.926;2023-12-22T02:13:03;3.30;;;0.70;;
69188;SDS011;56302;52.322;5.926;2023-12-22T02:15:33;4.20;;;0.95;;
69188;SDS011;56302;52.322;5.926;2023-12-22T02:18:02;4.50;;;1.00;;
69188;SDS011;56302;52.322;5.926;2023-12-22T02:20:43;2.65;;;0.70;;
69188;SDS011;56302;52.322;5.926;2023-12-22T02:23:10;3.50;;;0.65;;
69188;SDS011;56302;52.322;5.926;2023-12-22T02:25:35;5.13;;;0.93;;
69188;SDS011;56302;52.322;5.926;2023-12-22T02:28:02;3.28;;;0.60;;
69188;SDS011;56302;52.322;5.926;2023-12-22T02:30:39;7.50;;;1.00;;
69188;SDS011;56302;52.322;5.926;2023-12-22T02:33:31;7.38;;;0.90;;
69188;SDS011;56302;52.322;5.926;2023-12-22T02:36:03;10.70;;;1.58;;
69188;SDS011;56302;52.322;5.926;2023-12-22T02:38:31;4.45;;;0.80;;
69188;SDS011;56302;52.322;5.926;2023-12-22T02:40:59;5.82;;;1.38;;
69188;SDS011;56302;52.322;5.926;2023-12-22T02:43:25;9.87;;;1.13;;
69188;SDS011;56302;52.322;5.926;2023-12-22T02:45:51;10.40;;;1.00;;
69188;SDS011;56302;52.322;5.926;2023-12-22T02:48:16;6.13;;;1.00;;
69188;SDS011;56302;52.322;5.926;2023-12-22T02:50:42;10.40;;;1.25;;
69188;SDS011;56302;52.322;5.926;2023-12-22T02:53:07;6.07;;;1.17;;
69188;SDS011;56302;52.322;5.926;2023-12-22T02:55:33;12.73;;;1.80;;
69188;SDS011;56302;52.322;5.926;2023-12-22T02:57:59;5.80;;;0.98;;
69188;SDS011;56302;52.322;5.926;2023-12-22T03:00:24;11.63;;;2.03;;
69188;SDS011;56302;52.322;5.926;2023-12-22T03:02:50;6.20;;;0.93;;
69188;SDS011;56302;52.322;5.926;2023-12-22T03:05:15;7.65;;;1.50;;
69188;SDS011;56302;52.322;5.926;2023-12-22T03:07:41;5.00;;;1.10;;
69188;SDS011;56302;52.322;5.926;2023-12-22T03:10:06;13.27;;;0.90;;
69188;SDS011;56302;52.322;5.926;2023-12-22T03:12:32;5.93;;;0.90;;
69188;SDS011;56302;52.322;5.926;2023-12-22T03:14:57;5.60;;;1.33;;
69188;SDS011;56302;52.322;5.926;2023-12-22T03:17:23;3.53;;;0.80;;
69188;SDS011;56302;52.322;5.926;2023-12-22T03:19:49;10.60;;;1.00;;
69188;SDS011;56302;52.322;5.926;2023-12-22T03:22:14;9.03;;;1.50;;
69188;SDS011;56302;52.322;5.926;2023-12-22T03:24:40;3.77;;;0.70;;
69188;SDS011;56302;52.322;5.926;2023-12-22T03:27:05;14.20;;;1.45;;
69188;SDS011;56302;52.322;5.926;2023-12-22T03:29:31;7.15;;;0.80;;
69188;SDS011;56302;52.322;5.926;2023-12-22T03:31:57;5.87;;;1.00;;
69188;SDS011;56302;52.322;5.926;2023-12-22T03:34:22;7.23;;;1.47;;
69188;SDS011;56302;52.322;5.926;2023-12-22T03:36:48;11.18;;;0.88;;
69188;SDS011;56302;52.322;5.926;2023-12-22T03:39:16;6.40;;;0.83;;
69188;SDS011;56302;52.322;5.926;2023-12-22T03:41:42;10.77;;;1.30;;
69188;SDS011;56302;52.322;5.926;2023-12-22T03:44:08;3.40;;;0.73;;
69188;SDS011;56302;52.322;5.926;2023-12-22T03:46:33;11.23;;;1.45;;
69188;SDS011;56302;52.322;5.926;2023-12-22T03:48:59;7.30;;;1.13;;
69188;SDS011;56302;52.322;5.926;2023-12-22T03:51:24;8.50;;;1.57;;
69188;SDS011;56302;52.322;5.926;2023-12-22T03:53:50;7.35;;;1.20;;
69188;SDS011;56302;52.322;5.926;2023-12-22T03:56:15;5.22;;;1.27;;
69188;SDS011;56302;52.322;5.926;2023-12-22T03:58:41;5.37;;;1.20;;
69188;SDS011;56302;52.322;5.926;2023-12-22T04:01:07;7.80;;;1.63;;
69188;SDS011;56302;52.322;5.926;2023-12-22T04:03:35;10.82;;;1.17;;
69188;SDS011;56302;52.322;5.926;2023-12-22T04:06:03;3.95;;;0.70;;
69188;SDS011;56302;52.322;5.926;2023-12-22T04:08:29;6.53;;;1.00;;
69188;SDS011;56302;52.322;5.926;2023-12-22T04:10:55;8.98;;;1.52;;
69188;SDS011;56302;52.322;5.926;2023-12-22T04:13:20;10.90;;;1.00;;
69188;SDS011;56302;52.322;5.926;2023-12-22T04:15:46;11.05;;;1.30;;
69188;SDS011;56302;52.322;5.926;2023-12-22T04:18:11;9.43;;;1.00;;
69188;SDS011;56302;52.322;5.926;2023-12-22T04:20:37;8.60;;;1.60;;
69188;SDS011;56302;52.322;5.926;2023-12-22T04:23:03;10.13;;;1.30;;
69188;SDS011;56302;52.322;5.926;2023-12-22T04:25:28;13.55;;;1.60;;
69188;SDS011;56302;52.322;5.926;2023-12-22T04:27:54;17.23;;;2.03;;
69188;SDS011;56302;52.322;5.926;2023-12-22T04:30:19;9.20;;;1.42;;
69188;SDS011;56302;52.322;5.926;2023-12-22T04:32:45;8.53;;;1.47;;
69188;SDS011;56302;52.322;5.926;2023-12-22T04:35:11;12.90;;;1.70;;
69188;SDS011;56302;52.322;5.926;2023-12-22T04:37:36;11.70;;;1.70;;
69188;SDS011;56302;52.322;5.926;2023-12-22T04:40:02;11.90;;;1.63;;
69188;SDS011;56302;52.322;5.926;2023-12-22T04:42:28;11.95;;;1.65;;
69188;SDS011;56302;52.322;5.926;2023-12-22T04:44:54;10.77;;;1.50;;
69188;SDS011;56302;52.322;5.926;2023-12-22T04:47:20;9.73;;;1.27;;
69188;SDS011;56302;52.322;5.926;2023-12-22T04:49:45;9.53;;;1.30;;
69188;SDS011;56302;52.322;5.926;2023-12-22T04:52:11;9.65;;;1.00;;
69188;SDS011;56302;52.322;5.926;2023-12-22T04:54:37;7.90;;;0.93;;
69188;SDS011;56302;52.322;5.926;2023-12-22T04:57:03;7.15;;;0.80;;
69188;SDS011;56302;52.322;5.926;2023-12-22T04:59:29;12.63;;;1.35;;
69188;SDS011;56302;52.322;5.926;2023-12-22T05:01:54;8.87;;;1.37;;
69188;SDS011;56302;52.322;5.926;2023-12-22T05:04:20;7.73;;;1.50;;
69188;SDS011;56302;52.322;5.926;2023-12-22T05:06:46;7.57;;;0.90;;
69188;SDS011;56302;52.322;5.926;2023-12-22T05:09:12;7.05;;;0.82;;
69188;SDS011;56302;52.322;5.926;2023-12-22T05:11:37;9.00;;;1.27;;
69188;SDS011;56302;52.322;5.926;2023-12-22T05:14:03;6.22;;;1.00;;
69188;SDS011;56302;52.322;5.926;2023-12-22T05:16:29;6.73;;;0.83;;
69188;SDS011;56302;52.322;5.926;2023-12-22T05:18:56;8.77;;;1.42;;
69188;SDS011;56302;52.322;5.926;2023-12-22T05:21:23;12.23;;;1.35;;
69188;SDS011;56302;52.322;5.926;2023-12-22T05:23:48;10.17;;;1.40;;
69188;SDS011;56302;52.322;5.926;2023-12-22T05:26:18;11.13;;;1.50;;
69188;SDS011;56302;52.322;5.926;2023-12-22T05:28:47;8.40;;;1.50;;
69188;SDS011;56302;52.322;5.926;2023-12-22T05:31:14;9.98;;;1.50;;
69188;SDS011;56302;52.322;5.926;2023-12-22T05:33:40;8.10;;;1.20;;
69188;SDS011;56302;52.322;5.926;2023-12-22T05:36:06;12.77;;;1.95;;
69188;SDS011;56302;52.322;5.926;2023-12-22T05:38:32;17.87;;;1.90;;
69188;SDS011;56302;52.322;5.926;2023-12-22T05:40:57;12.57;;;1.95;;
69188;SDS011;56302;52.322;5.926;2023-12-22T05:43:23;14.95;;;1.70;;
69188;SDS011;56302;52.322;5.926;2023-12-22T05:45:49;10.32;;;1.55;;
69188;SDS011;56302;52.322;5.926;2023-12-22T05:48:14;18.73;;;2.03;;
69188;SDS011;56302;52.322;5.926;2023-12-22T05:50:40;14.43;;;1.73;;
69188;SDS011;56302;52.322;5.926;2023-12-22T05:53:05;15.30;;;2.17;;
69188;SDS011;56302;52.322;5.926;2023-12-22T05:55:31;16.17;;;2.43;;
69188;SDS011;56302;52.322;5.926;2023-12-22T05:57:57;12.70;;;1.85;;
69188;SDS011;56302;52.322;5.926;2023-12-22T06:00:22;14.18;;;1.95;;
69188;SDS011;56302;52.322;5.926;2023-12-22T06:02:48;23.53;;;2.20;;
69188;SDS011;56302;52.322;5.926;2023-12-22T06:05:14;17.52;;;2.28;;
69188;SDS011;56302;52.322;5.926;2023-12-22T06:07:40;17.27;;;2.40;;
69188;SDS011;56302;52.322;5.926;2023-12-22T06:10:06;15.60;;;2.03;;
69188;SDS011;56302;52.322;5.926;2023-12-22T06:12:34;13.98;;;2.10;;
69188;SDS011;56302;52.322;5.926;2023-12-22T06:15:00;14.03;;;2.13;;
69188;SDS011;56302;52.322;5.926;2023-12-22T06:17:25;21.25;;;2.53;;
69188;SDS011;56302;52.322;5.926;2023-12-22T06:19:51;20.97;;;2.20;;
69188;SDS011;56302;52.322;5.926;2023-12-22T06:22:16;10.50;;;1.67;;
69188;SDS011;56302;52.322;5.926;2023-12-22T06:24:42;17.20;;;1.63;;
69188;SDS011;56302;52.322;5.926;2023-12-22T06:27:08;10.70;;;1.97;;
69188;SDS011;56302;52.322;5.926;2023-12-22T06:29:33;10.57;;;1.35;;
69188;SDS011;56302;52.322;5.926;2023-12-22T06:31:59;4.50;;;1.07;;
69188;SDS011;56302;52.322;5.926;2023-12-22T06:34:24;7.47;;;1.10;;
69188;SDS011;56302;52.322;5.926;2023-12-22T06:36:51;6.82;;;0.80;;
69188;SDS011;56302;52.322;5.926;2023-12-22T06:39:16;6.00;;;1.10;;
69188;SDS011;56302;52.322;5.926;2023-12-22T06:41:42;3.55;;;0.85;;
69188;SDS011;56302;52.322;5.926;2023-12-22T06:44:07;5.20;;;1.00;;
69188;SDS011;56302;52.322;5.926;2023-12-22T06:46:35;5.78;;;0.93;;
69188;SDS011;56302;52.322;5.926;2023-12-22T06:49:01;4.05;;;0.70;;
69188;SDS011;56302;52.322;5.926;2023-12-22T06:51:27;8.07;;;1.27;;
69188;SDS011;56302;52.322;5.926;2023-12-22T06:53:55;6.28;;;1.10;;
69188;SDS011;56302;52.322;5.926;2023-12-22T06:56:25;5.63;;;0.90;;
69188;SDS011;56302;52.322;5.926;2023-12-22T06:58:52;6.57;;;1.08;;
69188;SDS011;56302;52.322;5.926;2023-12-22T07:01:27;4.93;;;0.85;;
69188;SDS011;56302;52.322;5.926;2023-12-22T07:03:54;5.50;;;1.00;;
69188;SDS011;56302;52.322;5.926;2023-12-22T07:06:20;7.22;;;0.98;;
69188;SDS011;56302;52.322;5.926;2023-12-22T07:08:57;5.47;;;0.90;;
69188;SDS011;56302;52.322;5.926;2023-12-22T07:11:23;6.97;;;1.08;;
69188;SDS011;56302;52.322;5.926;2023-12-22T07:13:48;7.75;;;1.55;;
69188;SDS011;56302;52.322;5.926;2023-12-22T07:16:14;10.68;;;1.27;;
69188;SDS011;56302;52.322;5.926;2023-12-22T07:18:40;7.70;;;1.10;;
69188;SDS011;56302;52.322;5.926;2023-12-22T07:21:06;6.87;;;1.13;;
69188;SDS011;56302;52.322;5.926;2023-12-22T07:23:32;9.30;;;1.20;;
69188;SDS011;56302;52.322;5.926;2023-12-22T07:25:57;10.40;;;1.33;;
69188;SDS011;56302;52.322;5.926;2023-12-22T07:28:23;6.85;;;1.23;;
69188;SDS011;56302;52.322;5.926;2023-12-22T07:30:49;8.97;;;1.47;;
69188;SDS011;56302;52.322;5.926;2023-12-22T07:33:14;7.63;;;1.10;;
69188;SDS011;56302;52.322;5.926;2023-12-22T07:35:40;8.70;;;1.10;;
69188;SDS011;56302;52.322;5.926;2023-12-22T07:38:06;13.00;;;1.37;;
69188;SDS011;56302;52.322;5.926;2023-12-22T07:40:31;11.77;;;1.98;;
69188;SDS011;56302;52.322;5.926;2023-12-22T07:42:57;11.52;;;2.10;;
69188;SDS011;56302;52.322;5.926;2023-12-22T07:45:23;13.68;;;2.10;;
69188;SDS011;56302;52.322;5.926;2023-12-22T07:47:48;12.47;;;1.67;;
69188;SDS011;56302;52.322;5.926;2023-12-22T07:50:14;17.10;;;2.15;;
69188;SDS011;56302;52.322;5.926;2023-12-22T07:52:40;14.48;;;1.80;;
69188;SDS011;56302;52.322;5.926;2023-12-22T07:55:08;15.57;;;2.13;;
69188;SDS011;56302;52.322;5.926;2023-12-22T07:57:35;15.75;;;1.77;;
69188;SDS011;56302;52.322;5.926;2023-12-22T08:00:02;17.60;;;1.58;;
69188;SDS011;56302;52.322;5.926;2023-12-22T08:02:28;13.95;;;1.73;;
69188;SDS011;56302;52.322;5.926;2023-12-22T08:04:54;18.90;;;2.37;;
69188;SDS011;56302;52.322;5.926;2023-12-22T08:07:19;16.27;;;2.35;;
69188;SDS011;56302;52.322;5.926;2023-12-22T08:09:45;17.65;;;2.47;;
69188;SDS011;56302;52.322;5.926;2023-12-22T08:12:10;15.87;;;2.90;;
69188;SDS011;56302;52.322;5.926;2023-12-22T08:14:36;14.90;;;2.17;;
69188;SDS011;56302;52.322;5.926;2023-12-22T08:17:01;16.23;;;1.70;;
69188;SDS011;56302;52.322;5.926;2023-12-22T08:19:27;20.87;;;2.93;;
69188;SDS011;56302;52.322;5.926;2023-12-22T08:21:53;23.90;;;3.00;;
69188;SDS011;56302;52.322;5.926;2023-12-22T08:24:19;15.65;;;1.67;;
69188;SDS011;56302;52.322;5.926;2023-12-22T08:26:45;14.57;;;2.10;;
69188;SDS011;56302;52.322;5.926;2023-12-22T08:29:11;17.30;;;2.57;;
69188;SDS011;56302;52.322;5.926;2023-12-22T08:31:36;15.23;;;1.85;;
69188;SDS011;56302;52.322;5.926;2023-12-22T08:34:02;9.30;;;1.35;;
69188;SDS011;56302;52.322;5.926;2023-12-22T08:36:27;11.03;;;1.20;;
69188;SDS011;56302;52.322;5.926;2023-12-22T08:38:53;14.55;;;2.45;;
69188;SDS011;56302;52.322;5.926;2023-12-22T08:41:18;19.02;;;2.08;;
69188;SDS011;56302;52.322;5.926;2023-12-22T08:43:44;20.57;;;2.33;;
69188;SDS011;56302;52.322;5.926;2023-12-22T08:46:10;9.43;;;1.52;;
69188;SDS011;56302;52.322;5.926;2023-12-22T08:48:37;19.55;;;2.30;;
69188;SDS011;56302;52.322;5.926;2023-12-22T08:51:02;14.73;;;2.20;;
69188;SDS011;56302;52.322;5.926;2023-12-22T08:53:29;16.83;;;1.90;;
69188;SDS011;56302;52.322;5.926;2023-12-22T08:55:56;13.50;;;1.85;;
69188;SDS011;56302;52.322;5.926;2023-12-22T08:58:21;12.67;;;2.27;;
69188;SDS011;56302;52.322;5.926;2023-12-22T09:00:47;15.60;;;2.55;;
69188;SDS011;56302;52.322;5.926;2023-12-22T09:03:13;10.90;;;1.80;;
69188;SDS011;56302;52.322;5.926;2023-12-22T09:05:38;13.50;;;1.90;;
69188;SDS011;56302;52.322;5.926;2023-12-22T09:08:04;17.17;;;2.30;;
69188;SDS011;56302;52.322;5.926;2023-12-22T09:10:31;17.27;;;2.03;;
69188;SDS011;56302;52.322;5.926;2023-12-22T09:12:57;13.00;;;1.40;;
69188;SDS011;56302;52.322;5.926;2023-12-22T09:15:23;15.43;;;1.97;;
69188;SDS011;56302;52.322;5.926;2023-12-22T09:17:48;18.83;;;2.08;;
69188;SDS011;56302;52.322;5.926;2023-12-22T09:20:16;14.83;;;1.60;;
69188;SDS011;56302;52.322;5.926;2023-12-22T09:22:42;17.58;;;2.17;;
69188;SDS011;56302;52.322;5.926;2023-12-22T09:25:07;15.23;;;2.33;;
69188;SDS011;56302;52.322;5.926;2023-12-22T09:27:33;13.35;;;2.35;;
69188;SDS011;56302;52.322;5.926;2023-12-22T09:29:59;15.63;;;2.10;;
69188;SDS011;56302;52.322;5.926;2023-12-22T09:32:25;15.63;;;3.00;;
69188;SDS011;56302;52.322;5.926;2023-12-22T09:34:51;12.88;;;1.88;;
69188;SDS011;56302;52.322;5.926;2023-12-22T09:37:17;19.40;;;1.67;;
69188;SDS011;56302;52.322;5.926;2023-12-22T09:39:43;15.52;;;2.20;;
69188;SDS011;56302;52.322;5.926;2023-12-22T09:42:08;20.53;;;2.00;;
69188;SDS011;56302;52.322;5.926;2023-12-22T09:44:34;20.00;;;1.80;;
69188;SDS011;56302;52.322;5.926;2023-12-22T09:47:03;16.83;;;2.80;;
69188;SDS011;56302;52.322;5.926;2023-12-22T09:49:31;14.85;;;2.42;;
69188;SDS011;56302;52.322;5.926;2023-12-22T09:51:58;20.45;;;2.38;;
69188;SDS011;56302;52.322;5.926;2023-12-22T09:54:26;16.75;;;2.47;;
69188;SDS011;56302;52.322;5.926;2023-12-22T09:56:52;18.60;;;2.70;;
69188;SDS011;56302;52.322;5.926;2023-12-22T09:59:18;16.42;;;2.20;;
69188;SDS011;56302;52.322;5.926;2023-12-22T10:01:46;16.30;;;2.30;;
69188;SDS011;56302;52.322;5.926;2023-12-22T10:04:13;22.95;;;2.78;;
69188;SDS011;56302;52.322;5.926;2023-12-22T10:06:39;15.13;;;2.07;;
69188;SDS011;56302;52.322;5.926;2023-12-22T10:09:10;12.07;;;2.13;;
69188;SDS011;56302;52.322;5.926;2023-12-22T10:11:39;16.85;;;2.45;;
69188;SDS011;56302;52.322;5.926;2023-12-22T10:14:08;12.02;;;2.10;;
69188;SDS011;56302;52.322;5.926;2023-12-22T10:16:35;15.32;;;2.33;;
69188;SDS011;56302;52.322;5.926;2023-12-22T10:19:01;14.13;;;2.70;;
69188;SDS011;56302;52.322;5.926;2023-12-22T10:21:28;15.20;;;2.53;;
69188;SDS011;56302;52.322;5.926;2023-12-22T10:23:55;11.65;;;1.70;;
69188;SDS011;56302;52.322;5.926;2023-12-22T10:26:21;11.93;;;2.20;;
69188;SDS011;56302;52.322;5.926;2023-12-22T10:28:47;16.73;;;1.80;;
69188;SDS011;56302;52.322;5.926;2023-12-22T10:31:14;10.38;;;1.98;;
69188;SDS011;56302;52.322;5.926;2023-12-22T10:33:39;11.60;;;2.20;;
69188;SDS011;56302;52.322;5.926;2023-12-22T10:36:06;7.20;;;1.30;;
69188;SDS011;56302;52.322;5.926;2023-12-22T10:38:33;11.68;;;1.23;;
69188;SDS011;56302;52.322;5.926;2023-12-22T10:41:05;8.97;;;1.20;;
69188;SDS011;56302;52.322;5.926;2023-12-22T10:43:36;12.00;;;1.40;;
69188;SDS011;56302;52.322;5.926;2023-12-22T10:46:05;9.88;;;1.25;;
69188;SDS011;56302;52.322;5.926;2023-12-22T10:48:33;5.72;;;1.10;;
69188;SDS011;56302;52.322;5.926;2023-12-22T10:50:59;7.55;;;1.30;;
69188;SDS011;56302;52.322;5.926;2023-12-22T10:53:24;5.97;;;1.42;;
69188;SDS011;56302;52.322;5.926;2023-12-22T10:55:50;9.87;;;1.20;;
69188;SDS011;56302;52.322;5.926;2023-12-22T10:58:16;10.32;;;1.92;;
69188;SDS011;56302;52.322;5.926;2023-12-22T11:00:44;11.52;;;1.77;;
69188;SDS011;56302;52.322;5.926;2023-12-22T11:03:12;14.63;;;1.65;;
69188;SDS011;56302;52.322;5.926;2023-12-22T11:05:42;10.15;;;2.13;;
69188;SDS011;56302;52.322;5.926;2023-12-22T11:08:10;11.83;;;1.53;;
69188;SDS011;56302;52.322;5.926;2023-12-22T11:10:37;20.40;;;2.22;;
69188;SDS011;56302;52.322;5.926;2023-12-22T11:13:07;10.88;;;1.85;;
69188;SDS011;56302;52.322;5.926;2023-12-22T11:15:34;9.55;;;1.85;;
69188;SDS011;56302;52.322;5.926;2023-12-22T11:18:01;7.55;;;1.20;;
69188;SDS011;56302;52.322;5.926;2023-12-22T11:20:26;7.83;;;1.10;;
69188;SDS011;56302;52.322;5.926;2023-12-22T11:22:57;8.52;;;1.50;;
69188;SDS011;56302;52.322;5.926;2023-12-22T11:25:24;7.30;;;1.38;;
69188;SDS011;56302;52.322;5.926;2023-12-22T11:27:51;10.40;;;1.30;;
69188;SDS011;56302;52.322;5.926;2023-12-22T11:30:20;8.95;;;1.75;;
69188;SDS011;56302;52.322;5.926;2023-12-22T11:32:49;10.52;;;1.25;;
69188;SDS011;56302;52.322;5.926;2023-12-22T11:35:15;10.57;;;1.80;;
69188;SDS011;56302;52.322;5.926;2023-12-22T11:37:42;8.43;;;1.40;;
69188;SDS011;56302;52.322;5.926;2023-12-22T11:40:08;11.13;;;2.00;;
69188;SDS011;56302;52.322;5.926;2023-12-22T11:42:42;11.52;;;1.48;;
69188;SDS011;56302;52.322;5.926;2023-12-22T11:45:12;10.20;;;1.50;;
69188;SDS011;56302;52.322;5.926;2023-12-22T11:47:45;9.93;;;1.20;;
69188;SDS011;56302;52.322;5.926;2023-12-22T11:50:11;17.05;;;1.85;;
69188;SDS011;56302;52.322;5.926;2023-12-22T11:52:37;7.53;;;1.43;;
69188;SDS011;56302;52.322;5.926;2023-12-22T11:55:04;13.80;;;1.70;;
69188;SDS011;56302;52.322;5.926;2023-12-22T11:57:32;7.55;;;1.42;;
69188;SDS011;56302;52.322;5.926;2023-12-22T12:00:07;13.27;;;2.20;;
69188;SDS011;56302;52.322;5.926;2023-12-22T12:02:36;6.28;;;1.55;;
69188;SDS011;56302;52.322;5.926;2023-12-22T12:05:04;10.53;;;1.70;;
69188;SDS011;56302;52.322;5.926;2023-12-22T12:07:39;11.30;;;1.48;;
69188;SDS011;56302;52.322;5.926;2023-12-22T12:10:06;8.90;;;1.58;;
69188;SDS011;56302;52.322;5.926;2023-12-22T12:12:32;8.48;;;1.05;;
69188;SDS011;56302;52.322;5.926;2023-12-22T12:15:00;6.07;;;1.20;;
69188;SDS011;56302;52.322;5.926;2023-12-22T12:17:33;7.80;;;1.30;;
69188;SDS011;56302;52.322;5.926;2023-12-22T12:20:02;11.27;;;1.17;;
69188;SDS011;56302;52.322;5.926;2023-12-22T12:22:31;10.65;;;1.58;;
69188;SDS011;56302;52.322;5.926;2023-12-22T12:24:56;7.57;;;1.30;;
69188;SDS011;56302;52.322;5.926;2023-12-22T12:27:22;7.85;;;1.35;;
69188;SDS011;56302;52.322;5.926;2023-12-22T12:29:47;10.73;;;1.63;;
69188;SDS011;56302;52.322;5.926;2023-12-22T12:32:14;11.30;;;1.08;;
69188;SDS011;56302;52.322;5.926;2023-12-22T12:34:42;6.63;;;1.65;;
69188;SDS011;56302;52.322;5.926;2023-12-22T12:37:08;12.20;;;1.80;;
69188;SDS011;56302;52.322;5.926;2023-12-22T12:39:34;10.70;;;1.13;;
69188;SDS011;56302;52.322;5.926;2023-12-22T12:42:00;10.68;;;1.40;;
69188;SDS011;56302;52.322;5.926;2023-12-22T12:44:27;9.80;;;2.03;;
69188;SDS011;56302;52.322;5.926;2023-12-22T12:46:54;10.57;;;1.53;;
69188;SDS011;56302;52.322;5.926;2023-12-22T12:49:29;11.02;;;1.45;;
69188;SDS011;56302;52.322;5.926;2023-12-22T12:51:56;8.88;;;1.48;;
69188;SDS011;56302;52.322;5.926;2023-12-22T12:54:22;12.60;;;1.60;;
69188;SDS011;56302;52.322;5.926;2023-12-22T12:56:47;15.85;;;1.77;;
69188;SDS011;56302;52.322;5.926;2023-12-22T12:59:16;12.67;;;1.67;;
69188;SDS011;56302;52.322;5.926;2023-12-22T13:01:45;8.10;;;1.15;;
69188;SDS011;56302;52.322;5.926;2023-12-22T13:04:12;10.13;;;1.38;;
69188;SDS011;56302;52.322;5.926;2023-12-22T13:06:47;12.73;;;1.40;;
69188;SDS011;56302;52.322;5.926;2023-12-22T13:09:14;11.18;;;1.58;;
69188;SDS011;56302;52.322;5.926;2023-12-22T13:11:41;10.53;;;1.63;;
69188;SDS011;56302;52.322;5.926;2023-12-22T13:14:08;10.60;;;1.45;;
69188;SDS011;56302;52.322;5.926;2023-12-22T13:16:40;8.05;;;1.48;;
69188;SDS011;56302;52.322;5.926;2023-12-22T13:19:07;11.05;;;1.17;;
69188;SDS011;56302;52.322;5.926;2023-12-22T13:21:32;6.65;;;1.30;;
69188;SDS011;56302;52.322;5.926;2023-12-22T13:24:08;7.40;;;1.13;;
69188;SDS011;56302;52.322;5.926;2023-12-22T13:26:33;8.05;;;0.93;;
69188;SDS011;56302;52.322;5.926;2023-12-22T13:28:59;8.47;;;1.60;;
69188;SDS011;56302;52.322;5.926;2023-12-22T13:31:25;7.68;;;1.50;;
69188;SDS011;56302;52.322;5.926;2023-12-22T13:33:51;9.40;;;1.77;;
69188;SDS011;56302;52.322;5.926;2023-12-22T13:36:17;8.30;;;1.48;;
69188;SDS011;56302;52.322;5.926;2023-12-22T13:38:46;10.60;;;1.15;;
69188;SDS011;56302;52.322;5.926;2023-12-22T13:41:13;8.25;;;1.48;;
69188;SDS011;56302;52.322;5.926;2023-12-22T13:43:40;10.20;;;1.90;;
69188;SDS011;56302;52.322;5.926;2023-12-22T13:46:06;8.48;;;1.33;;
69188;SDS011;56302;52.322;5.926;2023-12-22T13:48:33;11.73;;;1.52;;
69188;SDS011;56302;52.322;5.926;2023-12-22T13:51:00;8.65;;;2.13;;
69188;SDS011;56302;52.322;5.926;2023-12-22T13:53:26;7.70;;;1.50;;
69188;SDS011;56302;52.322;5.926;2023-12-22T13:55:58;12.82;;;1.67;;
69188;SDS011;56302;52.322;5.926;2023-12-22T13:58:24;9.10;;;1.40;;
69188;SDS011;56302;52.322;5.926;2023-12-22T14:00:51;8.17;;;1.40;;
69188;SDS011;56302;52.322;5.926;2023-12-22T14:03:17;7.72;;;1.15;;
69188;SDS011;56302;52.322;5.926;2023-12-22T14:05:46;9.70;;;2.22;;
69188;SDS011;56302;52.322;5.926;2023-12-22T14:08:12;8.93;;;1.70;;
69188;SDS011;56302;52.322;5.926;2023-12-22T14:10:43;10.60;;;1.30;;
69188;SDS011;56302;52.322;5.926;2023-12-22T14:13:13;10.18;;;1.60;;
69188;SDS011;56302;52.322;5.926;2023-12-22T14:15:39;10.32;;;1.50;;
69188;SDS011;56302;52.322;5.926;2023-12-22T14:18:06;10.15;;;1.80;;
69188;SDS011;56302;52.322;5.926;2023-12-22T14:20:31;8.10;;;1.37;;
69188;SDS011;56302;52.322;5.926;2023-12-22T14:22:57;13.93;;;1.87;;
69188;SDS011;56302;52.322;5.926;2023-12-22T14:25:23;12.48;;;1.42;;
69188;SDS011;56302;52.322;5.926;2023-12-22T14:27:51;9.70;;;1.40;;
69188;SDS011;56302;52.322;5.926;2023-12-22T14:30:18;8.75;;;1.30;;
69188;SDS011;56302;52.322;5.926;2023-12-22T14:32:44;15.60;;;2.07;;
69188;SDS011;56302;52.322;5.926;2023-12-22T14:35:09;17.52;;;1.95;;
69188;SDS011;56302;52.322;5.926;2023-12-22T14:37:36;11.75;;;1.63;;